Language: 

Nearby METAR Reports

METAR Reports

Hourly observations from airfields within 50 miles of this weather station

 

EGHH - Bournemouth Airp, United Kingdom
Distance from station: S 10mi, 17km
Updated: Wed, 26-Sep-2018 8:20am BST
Clear
Clear
 Wind from calm
Wind: Calm
Temperature: 4°C
Dew Point: 4°C
Humidity: 100%
Barometer: 1033 hPa
Summary: Clear
Visibility: greater than 7 miles , 10 km
2018/09/26 07:20 EGHH 260720Z 00000KT CAVOK 04/04 Q1033
EGDM - Boscombe Down, United Kingdom
Distance from station: N 16mi, 26km
Updated: Wed, 26-Sep-2018 7:50am BST
Clear
Clear
 Wind from NW
Wind: NW 7 mph , 11 km/h
Temperature: 4°C
Wind Chill: 1°C
Dew Point: 2°C
Humidity: 87%
Barometer: 1033 hPa
Summary: Clear
Visibility: greater than 7 miles , 10 km
2018/09/26 06:50 EGDM 260650Z 32006KT CAVOK 04/02 Q1033 BLU NOSIG
 
EGVP - Middle Wallop, United Kingdom
Distance from station: NE 17mi, 27km
Updated: Wed, 26-Sep-2018 7:50am BST
Clear
Clear
 Wind from N
Wind: N 2 mph , 4 km/h
Temperature: 4°C
Dew Point: 3°C
Humidity: 93%
Barometer: 1033 hPa
Summary: Clear
Visibility: greater than 7 miles , 10 km
2018/09/26 06:50 EGVP 260650Z 36002KT CAVOK 04/03 Q1033 BLU NOSIG
EGHI - Southampton Wx C, United Kingdom
Distance from station: E 19mi, 31km
Updated: Wed, 26-Sep-2018 8:20am BST
Clear
Clear
 Wind from calm
Wind: Calm
Temperature: 5°C
Dew Point: 5°C
Humidity: 100%
Barometer: 1033 hPa
Summary: Clear
Visibility: greater than 7 miles , 10 km
2018/09/26 07:20 EGHI 260720Z 00000KT CAVOK 05/05 Q1033
 
EGDY - Yeovilton (navy), United Kingdom
Distance from station: W 36mi, 58km
Updated: Wed, 26-Sep-2018 7:50am BST
Mist, Few clouds
Mist, Few clouds
 Wind from SE
Wind: SE 1 mph , 2 km/h
Temperature: 3°C
Dew Point: 3°C
Humidity: 100%
Barometer: 1033 hPa
Summary: Mist
Clouds: Few Clouds
Visibility: 5 miles , 8 km
Cloud details: Few Clouds 1524 m
2018/09/26 06:50 EGDY 260650Z 13001KT 8000 BR FEW050 03/03 Q1033 BLU NOSIG
EGVO - Odiham Raf, United Kingdom
Distance from station: ENE 42mi, 68km
Updated: Wed, 26-Sep-2018 7:50am BST
Clear
Clear
 Wind from WSW
Wind: WSW 3 mph , 6 km/h
Temperature: 9°C
Dew Point: 8°C
Humidity: 94%
Barometer: 1033 hPa
Summary: Clear
Visibility: greater than 7 miles , 10 km
2018/09/26 06:50 EGVO 260650Z 24003KT CAVOK 09/08 Q1033 BLU

Metar display script from Saratoga-Weather.org

top of page button